Time;durP1;ratioP1;P1;durP2;ratioP2;P2;SDS_P1;SDS_P2;PMS_P1;PMS_P2;Temp;Humidity;BMP_temperature;BMP_pressure;BME280_temperature;BME280_humidity;BME280_pressure;Samples;Min_cycle;Max_cycle;Signal;HPM_P1;HPM_P2
2021/12/27 00:00:27;;;;;;;24.75;4.22;;;;;;;20.50;55.73;98728.88;7312034;19;129183;-39
2021/12/27 00:02:57;;;;;;;17.95;2.67;;;;;;;20.48;55.83;98736.03;7313576;19;128969;-39
2021/12/27 00:05:22;;;;;;;24.25;3.83;;;;;;;20.49;56.03;98729.84;7310714;19;129650;-34
2021/12/27 00:07:50;;;;;;;13.85;2.38;;;;;;;20.39;55.93;98718.69;7307810;19;131382;-37
2021/12/27 00:10:16;;;;;;;15.98;3.00;;;;;;;20.48;56.20;98722.97;7311531;19;129267;-38
2021/12/27 00:12:42;;;;;;;19.98;3.45;;;;;;;20.49;56.48;98719.41;7313652;19;129471;-38
2021/12/27 00:15:08;;;;;;;9.02;1.92;;;;;;;20.48;56.19;98728.19;7311725;19;129190;-35
2021/12/27 00:17:33;;;;;;;19.20;3.27;;;;;;;20.43;56.46;98725.22;7310216;19;130476;-39
2021/12/27 00:19:58;;;;;;;23.75;3.63;;;;;;;20.44;55.98;98732.09;7313002;19;129576;-38
2021/12/27 00:22:24;;;;;;;15.70;2.73;;;;;;;20.44;55.85;98716.44;7311252;19;141393;-37
2021/12/27 00:24:50;;;;;;;11.85;2.20;;;;;;;20.46;56.01;98719.72;7303669;19;130905;-36
2021/12/27 00:27:17;;;;;;;12.73;2.30;;;;;;;20.45;56.26;98713.66;7312044;19;130109;-36
2021/12/27 00:29:43;;;;;;;17.30;3.13;;;;;;;20.47;56.21;98705.69;7311848;19;130100;-38
2021/12/27 00:32:09;;;;;;;23.80;3.87;;;;;;;20.48;56.40;98710.75;7308460;19;129992;-37
2021/12/27 00:34:36;;;;;;;13.95;2.92;;;;;;;20.50;55.83;98710.59;7312019;19;129912;-38
2021/12/27 00:37:03;;;;;;;18.80;3.33;;;;;;;20.48;56.19;98702.09;7311067;19;130301;-35
2021/12/27 00:39:28;;;;;;;;;;;;;;;20.40;56.63;98691.59;7312028;19;129754;-37
2021/12/27 00:41:53;;;;;;;13.37;2.60;;;;;;;20.47;55.86;98685.63;7312658;19;138164;-38
2021/12/27 00:44:18;;;;;;;8.83;1.80;;;;;;;20.52;56.25;98687.75;7308891;19;154480;-38
2021/12/27 00:46:44;;;;;;;15.33;3.17;;;;;;;20.52;56.08;98696.44;7309186;19;158411;-37
2021/12/27 00:49:09;;;;;;;15.23;3.27;;;;;;;20.55;56.22;98690.06;7309504;19;158665;-38
2021/12/27 00:51:34;;;;;;;18.02;3.33;;;;;;;20.49;56.03;98688.88;7307729;19;138413;-37
2021/12/27 00:53:59;;;;;;;27.23;5.20;;;;;;;20.51;56.11;98688.75;7308732;19;152940;-38
2021/12/27 00:56:25;;;;;;;14.07;2.50;;;;;;;20.49;56.20;98690.69;7309005;19;158527;-38
2021/12/27 00:58:50;;;;;;;11.17;2.27;;;;;;;20.49;56.05;98693.31;7305387;19;159419;-39
2021/12/27 01:01:18;;;;;;;10.25;2.17;;;;;;;20.50;56.42;98687.91;7308086;19;129213;-35
2021/12/27 01:03:43;;;;;;;14.97;2.83;;;;;;;20.49;55.92;98677.63;7307231;19;155441;-34
2021/12/27 01:06:09;;;;;;;14.77;2.85;;;;;;;20.51;56.02;98675.69;7306131;19;131484;-39
2021/12/27 01:08:36;;;;;;;13.37;2.63;;;;;;;20.49;55.94;98675.03;7307574;19;158481;-36
2021/12/27 01:13:40;;;;;;;13.75;2.50;;;;;;;20.44;55.90;98674.66;7309658;19;136315;-40
2021/12/27 01:18:33;;;;;;;12.27;2.50;;;;;;;20.46;56.26;98672.72;7308891;19;133196;-38
2021/12/27 01:20:59;;;;;;;16.85;2.83;;;;;;;20.45;56.49;98676.28;7309987;19;129357;-35
2021/12/27 01:23:25;;;;;;;14.25;2.70;;;;;;;20.44;56.11;98669.44;7309843;19;129334;-39
2021/12/27 01:25:50;;;;;;;18.98;2.97;;;;;;;20.48;56.30;98678.59;7310287;19;129396;-36
2021/12/27 01:28:18;;;;;;;11.15;2.15;;;;;;;20.45;56.07;98660.63;7307404;19;129301;-32
2021/12/27 01:30:47;;;;;;;11.95;2.35;;;;;;;20.44;55.98;98674.66;7308745;19;129018;-36
2021/12/27 01:33:14;;;;;;;8.55;1.98;;;;;;;20.44;56.61;98666.84;7308234;19;129394;-36
2021/12/27 01:35:40;;;;;;;;;;;;;;;20.41;57.43;98669.75;7310033;19;129666;-35
2021/12/27 01:38:05;;;;;;;14.27;2.63;;;;;;;20.44;56.51;98661.63;7308912;19;130402;-35
2021/12/27 01:40:31;;;;;;;13.55;2.63;;;;;;;20.45;56.49;98666.69;7308797;19;153230;-35
2021/12/27 01:43:12;;;;;;;7.05;1.50;;;;;;;20.48;56.54;98660.31;7310368;19;128984;-38
2021/12/27 01:45:48;;;;;;;20.23;3.67;;;;;;;20.37;56.05;98642.31;7304380;19;130103;-32
2021/12/27 01:48:16;;;;;;;9.20;2.15;;;;;;;20.47;55.89;98661.31;7306290;19;129544;-34
2021/12/27 01:50:44;;;;;;;13.65;2.97;;;;;;;20.45;56.58;98658.00;7306378;19;128978;-38
2021/12/27 01:53:11;;;;;;;16.75;2.95;;;;;;;20.49;56.37;98669.81;7307559;19;129025;-36
2021/12/27 01:55:37;;;;;;;9.88;2.45;;;;;;;20.43;56.29;98667.78;7306886;19;129197;-30
2021/12/27 01:58:03;;;;;;;15.82;2.80;;;;;;;20.44;56.23;98669.44;7307705;19;130449;-33
2021/12/27 02:00:28;;;;;;;16.27;2.83;;;;;;;20.45;56.43;98664.06;7306548;19;129336;-37
2021/12/27 02:02:54;;;;;;;14.07;2.40;;;;;;;20.42;56.79;98666.16;7309827;19;129022;-35
2021/12/27 02:05:19;;;;;;;11.10;2.30;;;;;;;20.47;55.92;98664.75;7309099;19;130044;-38
2021/12/27 02:07:45;;;;;;;11.02;2.55;;;;;;;20.40;56.99;98665.50;7309122;19;130524;-33
2021/12/27 02:10:12;;;;;;;13.65;2.63;;;;;;;20.42;56.51;98664.38;7308466;19;129511;-32
2021/12/27 02:12:39;;;;;;;14.48;2.50;;;;;;;20.38;57.36;98654.38;7309191;19;130161;-35
2021/12/27 02:15:09;;;;;;;16.60;2.95;;;;;;;20.38;56.38;98654.38;7307291;19;130232;-34
2021/12/27 02:17:39;;;;;;;17.98;3.03;;;;;;;20.37;56.32;98658.81;7307417;19;130554;-38
2021/12/27 02:20:19;;;;;;;19.95;3.28;;;;;;;20.37;56.51;98657.97;7308328;19;129024;-35
2021/12/27 02:22:46;;;;;;;18.05;2.88;;;;;;;20.36;56.25;98661.56;7308748;19;129297;-33
2021/12/27 02:25:13;;;;;;;14.68;2.80;;;;;;;20.37;56.46;98663.19;7307369;19;129359;-35
2021/12/27 02:27:39;;;;;;;14.38;2.80;;;;;;;20.36;56.78;98651.94;7306592;19;129178;-37
2021/12/27 02:30:11;;;;;;;11.27;2.65;;;;;;;20.38;56.53;98654.38;7307882;19;129377;-34
2021/12/27 02:32:49;;;;;;;11.85;2.20;;;;;;;20.36;56.67;98659.75;7309804;19;129013;-37
2021/12/27 02:35:22;;;;;;;13.38;2.47;;;;;;;20.42;56.70;98647.88;7307671;19;129185;-32
2021/12/27 02:37:48;;;;;;;16.10;2.92;;;;;;;20.40;56.54;98653.28;7306150;19;129212;-35
2021/12/27 02:40:14;;;;;;;18.45;3.20;;;;;;;20.41;56.31;98648.88;7308055;19;129285;-30
2021/12/27 02:42:57;;;;;;;11.00;2.27;;;;;;;20.40;57.25;98647.22;7307575;19;130205;-34
2021/12/27 02:45:24;;;;;;;11.48;2.10;;;;;;;20.28;56.46;98625.00;7311917;19;128981;-39
2021/12/27 02:47:50;;;;;;;16.75;2.80;;;;;;;20.40;56.78;98631.56;7313119;19;129553;-36
2021/12/27 02:50:16;;;;;;;12.70;2.25;;;;;;;20.44;55.96;98633.69;7315313;19;128923;-34
2021/12/27 02:52:41;;;;;;;19.55;3.88;;;;;;;20.45;56.26;98639.75;7314176;19;129289;-36
2021/12/27 02:55:06;;;;;;;22.17;4.13;;;;;;;20.44;56.65;98648.56;7310738;19;159692;-32
2021/12/27 02:57:32;;;;;;;12.63;2.65;;;;;;;20.44;56.13;98648.56;7308410;19;130909;-31
2021/12/27 02:59:57;;;;;;;16.92;2.95;;;;;;;20.44;56.38;98646.75;7313697;19;129131;-34
2021/12/27 03:02:23;;;;;;;22.60;4.45;;;;;;;20.42;56.20;98642.66;7309982;19;154026;-37
2021/12/27 03:04:49;;;;;;;18.33;3.03;;;;;;;20.40;56.11;98632.38;7310608;19;129159;-31
2021/12/27 03:07:14;;;;;;;23.95;4.13;;;;;;;20.40;56.46;98634.16;7308116;19;130842;-32
2021/12/27 03:09:39;;;;;;;14.00;2.83;;;;;;;20.36;56.51;98628.44;7311652;19;143320;-37
2021/12/27 03:12:10;;;;;;;12.77;2.47;;;;;;;20.37;56.64;98629.25;7309029;19;154462;-33
2021/12/27 03:14:35;;;;;;;13.55;2.80;;;;;;;20.28;56.94;98606.72;7312879;19;129256;-37
2021/12/27 03:17:00;;;;;;;15.53;3.03;;;;;;;20.33;56.87;98620.09;7311197;19;157979;-34
2021/12/27 03:19:26;;;;;;;11.93;2.15;;;;;;;20.35;56.92;98623.38;7309228;19;129323;-35
2021/12/27 03:21:51;;;;;;;17.47;2.97;;;;;;;20.35;57.18;98613.75;7312531;19;153965;-34
2021/12/27 03:24:16;;;;;;;12.33;2.33;;;;;;;20.36;56.41;98614.59;7310211;19;158572;-34
2021/12/27 03:26:41;;;;;;;14.30;2.65;;;;;;;20.36;56.42;98597.09;7314741;19;130295;-35
2021/12/27 03:29:07;;;;;;;15.88;3.10;;;;;;;20.37;57.08;98603.16;7309834;19;156196;-35
2021/12/27 03:31:32;;;;;;;14.15;2.55;;;;;;;20.34;56.68;98598.25;7312591;19;129423;-37
2021/12/27 03:33:59;;;;;;;25.05;4.55;;;;;;;20.35;56.48;98594.66;7311531;19;158275;-35
2021/12/27 03:36:24;;;;;;;16.13;3.05;;;;;;;20.38;56.92;98596.94;7312584;19;129775;-37
2021/12/27 03:38:52;;;;;;;19.77;3.40;;;;;;;20.35;57.31;98585.03;7311582;19;130258;-33
2021/12/27 03:41:22;;;;;;;8.65;2.00;;;;;;;20.30;56.30;98589.91;7314847;19;129895;-35
2021/12/27 03:43:47;;;;;;;18.77;3.58;;;;;;;20.40;56.27;98600.22;7311958;19;129336;-34
2021/12/27 03:46:14;;;;;;;15.82;2.92;;;;;;;20.42;56.97;98590.47;7312102;19;158838;-35
2021/12/27 03:48:40;;;;;;;;;;;;;;;20.38;56.25;98594.34;7312110;19;129580;-37
2021/12/27 03:51:06;;;;;;;12.03;2.50;;;;;;;20.41;56.79;98584.41;7311956;19;129167;-35
2021/12/27 03:53:32;;;;;;;17.38;3.03;;;;;;;20.33;56.24;98562.66;7311376;19;130299;-35
2021/12/27 03:55:57;;;;;;;20.67;2.85;;;;;;;20.41;56.81;98581.00;7310164;19;129285;-35
2021/12/27 03:58:33;;;;;;;12.40;2.47;;;;;;;20.42;56.59;98585.22;7312004;19;129819;-35
2021/12/27 04:01:13;;;;;;;18.40;3.00;;;;;;;20.40;56.27;98581.97;7312447;19;129035;-39
2021/12/27 04:03:38;;;;;;;14.23;2.78;;;;;;;20.42;56.77;98572.19;7312755;19;129657;-33
2021/12/27 04:06:04;;;;;;;15.55;2.55;;;;;;;20.31;56.31;98570.66;7310525;19;158409;-34
2021/12/27 04:08:29;;;;;;;10.15;2.22;;;;;;;20.34;56.40;98593.88;7311110;19;129420;-35
2021/12/27 04:10:55;;;;;;;23.70;3.47;;;;;;;20.38;56.93;98578.69;7310756;19;154942;-35
2021/12/27 04:13:21;;;;;;;18.35;3.85;;;;;;;20.36;56.26;98580.66;7306638;19;129690;-37
2021/12/27 04:15:49;;;;;;;17.10;2.97;;;;;;;20.38;56.23;98576.06;7311226;19;130307;-37
2021/12/27 04:18:15;;;;;;;16.73;3.15;;;;;;;20.42;56.20;98580.84;7308690;19;129939;-35
2021/12/27 04:20:40;;;;;;;13.25;2.70;;;;;;;20.43;56.66;98590.28;7310332;19;129851;-33
2021/12/27 04:23:07;;;;;;;14.85;2.92;;;;;;;20.41;56.62;98586.22;7310065;19;130042;-40
2021/12/27 04:25:32;;;;;;;12.43;2.58;;;;;;;20.39;56.51;98577.72;7310425;19;129576;-34
2021/12/27 04:27:57;;;;;;;17.40;2.97;;;;;;;20.43;56.53;98594.69;7309043;19;129611;-35
2021/12/27 04:30:23;;;;;;;14.45;2.67;;;;;;;20.43;56.03;98586.84;7306175;19;129015;-39
2021/12/27 04:32:49;;;;;;;17.10;2.65;;;;;;;20.43;56.16;98592.09;7310733;19;158972;-33
2021/12/27 04:35:16;;;;;;;11.00;2.30;;;;;;;20.46;56.69;98589.19;7311218;19;131166;-34
2021/12/27 04:37:41;;;;;;;10.07;2.22;;;;;;;20.43;56.38;98584.25;7310539;19;129306;-36
2021/12/27 04:40:09;;;;;;;13.95;2.58;;;;;;;20.43;56.35;98579.03;7311988;19;129006;-34
2021/12/27 04:42:35;;;;;;;14.70;2.80;;;;;;;20.44;56.28;98580.69;7311414;19;133055;-33
2021/12/27 04:45:03;;;;;;;16.52;2.80;;;;;;;20.40;56.06;98584.56;7309983;19;129413;-36
2021/12/27 04:47:28;;;;;;;9.68;1.92;;;;;;;20.43;56.62;98589.47;7311427;19;129278;-41
2021/12/27 04:49:54;;;;;;;22.75;3.50;;;;;;;20.42;57.20;98587.84;7310536;19;154352;-36
2021/12/27 04:52:19;;;;;;;17.17;2.95;;;;;;;20.42;56.59;98587.84;7308742;19;129472;-34
2021/12/27 04:54:45;;;;;;;6.10;1.73;;;;;;;20.35;56.72;98579.00;7311112;19;129324;-31
2021/12/27 04:57:10;;;;;;;18.25;3.30;;;;;;;20.35;57.00;98576.38;7304535;19;129755;-46
2021/12/27 04:59:36;;;;;;;13.73;2.83;;;;;;;20.36;56.75;98570.22;7310710;19;129144;-37
2021/12/27 05:02:02;;;;;;;13.13;2.30;;;;;;;20.31;56.82;98575.06;7310491;19;130155;-36
2021/12/27 05:04:27;;;;;;;12.03;2.67;;;;;;;20.29;56.65;98556.16;7308876;19;130840;-34
2021/12/27 05:06:52;;;;;;;17.67;2.97;;;;;;;20.24;57.11;98561.00;7309726;19;152435;-35
2021/12/27 05:09:18;;;;;;;12.73;2.55;;;;;;;20.22;57.55;98562.94;7308832;19;154621;-33
2021/12/27 05:11:43;;;;;;;14.80;2.97;;;;;;;20.18;57.57;98569.47;7307371;19;158290;-34
2021/12/27 05:14:08;;;;;;;16.53;2.90;;;;;;;20.14;57.54;98565.50;7306844;19;148338;-35
2021/12/27 05:16:34;;;;;;;15.23;2.88;;;;;;;20.11;57.29;98560.59;7309433;19;129105;-35
2021/12/27 05:18:59;;;;;;;18.92;3.17;;;;;;;20.11;57.28;98563.19;7305004;19;154743;-35
2021/12/27 05:21:25;;;;;;;6.43;1.60;;;;;;;20.07;57.57;98561.84;7309065;19;158356;-36
2021/12/27 05:23:50;;;;;;;24.00;4.53;;;;;;;20.09;57.88;98557.31;7308823;19;129246;-30
2021/12/27 05:26:16;;;;;;;8.93;1.90;;;;;;;20.07;57.12;98557.47;7309328;19;129066;-33
2021/12/27 05:28:41;;;;;;;15.93;2.97;;;;;;;20.03;57.45;98555.34;7307698;19;129468;-33
2021/12/27 05:31:07;;;;;;;21.08;3.58;;;;;;;20.03;57.19;98566.56;7306204;19;158694;-38
2021/12/27 05:33:32;;;;;;;13.40;2.70;;;;;;;20.04;57.55;98563.00;7309655;19;132486;-34
2021/12/27 05:35:57;;;;;;;13.35;2.45;;;;;;;20.03;57.47;98563.16;7309599;19;129275;-36
2021/12/27 05:38:23;;;;;;;13.23;2.60;;;;;;;19.96;57.63;98549.09;7305697;19;153999;-35
2021/12/27 05:40:48;;;;;;;14.88;2.70;;;;;;;20.02;57.30;98554.50;7309106;19;129866;-32
2021/12/27 05:43:14;;;;;;;17.45;3.60;;;;;;;20.03;57.35;98557.94;7303830;19;130516;-33
2021/12/27 05:45:39;;;;;;;10.18;2.40;;;;;;;20.04;58.29;98562.19;7309040;19;138464;-34
2021/12/27 05:48:06;;;;;;;7.28;1.73;;;;;;;20.05;57.80;98558.56;7308456;19;129648;-34
2021/12/27 05:50:31;;;;;;;14.90;2.95;;;;;;;20.02;57.64;98558.88;7308160;19;129671;-32
2021/12/27 05:52:57;;;;;;;18.13;2.95;;;;;;;20.05;57.57;98561.19;7308427;19;129312;-37
2021/12/27 05:55:23;;;;;;;15.95;3.17;;;;;;;20.08;57.74;98560.91;7306897;19;155158;-36
2021/12/27 05:57:49;;;;;;;14.00;2.63;;;;;;;20.07;58.00;98577.50;7308447;19;129475;-34
2021/12/27 06:00:15;;;;;;;11.55;2.40;;;;;;;20.08;57.29;98564.31;7308021;19;131909;-36
2021/12/27 06:02:42;;;;;;;17.75;3.40;;;;;;;20.12;57.32;98572.66;7302557;19;130937;-35
2021/12/27 06:05:07;;;;;;;9.70;2.17;;;;;;;20.12;57.26;98572.66;7306862;19;129433;-31
2021/12/27 06:07:33;;;;;;;13.63;2.80;;;;;;;20.19;56.84;98582.38;7307002;19;130076;-36
2021/12/27 06:09:58;;;;;;;22.90;3.55;;;;;;;20.21;56.73;98563.94;7307335;19;130547;-37
2021/12/27 06:12:24;;;;;;;14.70;2.88;;;;;;;20.26;57.04;98569.50;7304372;19;135799;-38
2021/12/27 06:14:49;;;;;;;21.45;3.72;;;;;;;20.25;57.24;98565.25;7305048;19;130306;-32
2021/12/27 06:17:15;;;;;;;20.73;4.10;;;;;;;20.26;56.82;98559.88;7306153;19;129387;-33
2021/12/27 06:19:40;;;;;;;13.57;2.67;;;;;;;20.26;56.93;98565.09;7309518;19;129620;-32
2021/12/27 06:22:06;;;;;;;11.80;2.50;;;;;;;20.29;56.85;98566.59;7313403;19;148679;-35
2021/12/27 06:24:31;;;;;;;13.90;2.72;;;;;;;20.33;56.44;98567.88;7310227;19;129272;-37
2021/12/27 06:26:56;;;;;;;9.48;1.98;;;;;;;20.33;56.67;98568.72;7309737;19;129092;-36
2021/12/27 06:29:22;;;;;;;9.98;2.05;;;;;;;20.30;56.60;98552.53;7315158;19;129519;-32
2021/12/27 06:31:47;;;;;;;15.93;2.58;;;;;;;20.38;56.36;98565.63;7311383;19;152551;-37
2021/12/27 06:34:14;;;;;;;30.90;5.53;;;;;;;20.38;56.83;98569.06;7312191;19;129333;-35
2021/12/27 06:36:39;;;;;;;14.35;2.75;;;;;;;20.37;56.77;98571.84;7313736;19;128892;-36
2021/12/27 06:39:05;;;;;;;17.77;3.13;;;;;;;20.40;56.83;98566.28;7312632;19;129576;-35
2021/12/27 06:41:31;;;;;;;12.27;2.50;;;;;;;20.41;56.45;98576.56;7309263;19;130903;-31
2021/12/27 06:43:56;;;;;;;24.30;4.13;;;;;;;20.40;56.21;98579.34;7312594;19;130069;-35
2021/12/27 06:46:22;;;;;;;13.18;2.42;;;;;;;20.33;56.50;98568.72;7313038;19;129426;-32
2021/12/27 06:48:47;;;;;;;19.15;3.30;;;;;;;20.42;56.22;98577.41;7310844;19;130926;-33
2021/12/27 06:51:12;;;;;;;22.40;3.70;;;;;;;20.42;57.16;98572.19;7310358;19;143214;-34
2021/12/27 06:53:38;;;;;;;11.13;2.38;;;;;;;20.43;56.83;98573.81;7311837;19;129181;-35
2021/12/27 06:56:05;;;;;;;21.07;3.43;;;;;;;20.42;56.24;98572.19;7311119;19;154530;-35
2021/12/27 06:58:30;;;;;;;35.45;6.75;;;;;;;20.43;56.81;98568.59;7307146;19;130876;-31
2021/12/27 07:00:56;;;;;;;20.70;3.00;;;;;;;20.32;56.14;98554.03;7315236;19;129099;-32
2021/12/27 07:03:21;;;;;;;15.50;3.00;;;;;;;20.41;56.29;98570.56;7308510;19;129706;-38
2021/12/27 07:05:48;;;;;;;9.65;2.15;;;;;;;20.41;56.30;98573.97;7313165;19;131185;-35
2021/12/27 07:08:15;;;;;;;15.60;2.85;;;;;;;20.42;56.29;98580.84;7306255;19;129319;-38
2021/12/27 07:10:40;;;;;;;11.68;2.65;;;;;;;20.41;56.63;98575.78;7313419;19;129642;-37
2021/12/27 07:13:06;;;;;;;17.10;3.38;;;;;;;20.40;56.22;98572.34;7312280;19;135054;-33
2021/12/27 07:15:32;;;;;;;17.08;3.28;;;;;;;20.40;57.03;98580.19;7311526;19;129272;-34
2021/12/27 07:17:57;;;;;;;26.77;4.17;;;;;;;20.38;56.91;98573.47;7310776;19;129365;-36
2021/12/27 07:20:23;;;;;;;11.15;2.47;;;;;;;20.30;56.79;98578.66;7310852;19;150367;-37
2021/12/27 07:22:49;;;;;;;15.68;2.75;;;;;;;20.36;56.59;98568.41;7312406;19;129968;-40
2021/12/27 07:25:15;;;;;;;14.93;3.03;;;;;;;20.33;56.45;98573.09;7311341;19;130634;-35
2021/12/27 07:27:40;;;;;;;17.92;3.35;;;;;;;20.32;56.94;98569.69;7310656;19;130112;-40
2021/12/27 07:30:10;;;;;;;22.85;4.38;;;;;;;20.26;56.48;98567.69;7307739;19;129615;-34
2021/12/27 07:32:35;;;;;;;12.80;2.58;;;;;;;20.35;57.19;98565.94;7308697;19;129128;-34
2021/12/27 07:35:02;;;;;;;21.85;3.75;;;;;;;20.33;57.33;98558.28;7304837;19;154649;-34
2021/12/27 07:37:27;;;;;;;;;;;;;;;20.31;57.18;98565.44;7312279;19;130014;-36
2021/12/27 07:39:54;;;;;;;52.80;9.03;;;;;;;20.30;57.09;98566.41;7307681;19;150109;-39
2021/12/27 07:42:19;;;;;;;12.20;2.38;;;;;;;20.35;56.44;98571.16;7306357;19;141796;-34
2021/12/27 07:44:44;;;;;;;12.80;2.83;;;;;;;20.32;56.75;98568.88;7310035;19;129751;-32
2021/12/27 07:47:10;;;;;;;19.15;3.72;;;;;;;20.32;57.10;98568.88;7311162;19;130720;-32
2021/12/27 07:49:37;;;;;;;14.13;2.78;;;;;;;20.32;56.53;98576.69;7311082;19;158759;-33
2021/12/27 07:52:03;;;;;;;24.95;4.18;;;;;;;20.29;57.17;98570.03;7303543;19;129267;-33
2021/12/27 07:54:29;;;;;;;13.52;2.95;;;;;;;20.28;57.15;98554.53;7309424;19;129128;-37
2021/12/27 07:56:54;;;;;;;21.13;3.13;;;;;;;20.34;56.71;98559.09;7310793;19;130481;-39
2021/12/27 07:59:19;;;;;;;10.07;2.35;;;;;;;20.33;56.99;98562.66;7310362;19;129057;-37
2021/12/27 08:01:45;;;;;;;17.17;2.90;;;;;;;20.32;56.72;98561.88;7310971;19;141359;-40
2021/12/27 08:04:10;;;;;;;19.88;3.40;;;;;;;20.32;56.67;98566.25;7307846;19;153349;-38
2021/12/27 08:06:36;;;;;;;15.30;2.90;;;;;;;20.31;56.50;98560.22;7305903;19;158939;-39
2021/12/27 08:09:03;;;;;;;18.63;3.17;;;;;;;20.29;56.88;98561.34;7308664;19;130777;-39
2021/12/27 08:11:29;;;;;;;21.45;3.75;;;;;;;20.17;57.05;98541.72;7311095;19;129316;-38
2021/12/27 08:13:54;;;;;;;27.83;5.07;;;;;;;20.26;57.44;98551.25;7309472;19;154399;-39
2021/12/27 08:16:24;;;;;;;13.77;2.60;;;;;;;20.28;57.36;98564.97;7311276;19;130396;-40
2021/12/27 08:18:50;;;;;;;16.23;2.65;;;;;;;20.26;57.24;98551.25;7309848;19;131003;-36
2021/12/27 08:21:16;;;;;;;11.82;2.42;;;;;;;20.25;57.30;98550.41;7312237;19;129420;-38
2021/12/27 08:23:42;;;;;;;10.75;2.63;;;;;;;20.25;57.23;98544.38;7309307;19;129258;-35
2021/12/27 08:26:07;;;;;;;21.15;3.47;;;;;;;20.29;57.00;98545.69;7310344;19;130651;-37
2021/12/27 08:28:33;;;;;;;25.00;4.20;;;;;;;20.27;57.31;98547.66;7307343;19;158604;-37
2021/12/27 08:30:58;;;;;;;21.50;3.25;;;;;;;20.26;56.76;98554.66;7311122;19;130298;-38
2021/12/27 08:33:23;;;;;;;13.77;2.58;;;;;;;20.27;56.80;98552.88;7311429;19;129250;-41
2021/12/27 08:35:49;;;;;;;14.93;2.47;;;;;;;20.27;56.61;98552.88;7309750;19;158367;-37
2021/12/27 08:38:16;;;;;;;16.48;3.30;;;;;;;20.27;57.46;98558.91;7309389;19;130918;-35
2021/12/27 08:40:41;;;;;;;21.33;3.88;;;;;;;20.27;57.22;98547.66;7312147;19;129182;-38
2021/12/27 08:43:07;;;;;;;13.20;2.63;;;;;;;20.23;56.45;98544.53;7309096;19;129919;-39
2021/12/27 08:45:32;;;;;;;12.00;2.45;;;;;;;20.30;57.18;98568.22;7310458;19;129608;-39
2021/12/27 08:47:57;;;;;;;18.83;2.92;;;;;;;20.29;56.63;98550.91;7307587;19;147061;-40
2021/12/27 08:50:23;;;;;;;13.18;2.45;;;;;;;20.28;56.91;98554.53;7311622;19;129209;-36
2021/12/27 08:52:50;;;;;;;26.33;5.03;;;;;;;20.19;57.16;98539.78;7307328;19;128904;-36
2021/12/27 08:55:16;;;;;;;13.73;2.60;;;;;;;20.21;56.57;98537.84;7308884;19;129083;-35
2021/12/27 08:57:42;;;;;;;12.88;2.80;;;;;;;20.29;57.10;98541.31;7308761;19;130170;-37
2021/12/27 09:00:10;;;;;;;14.10;2.65;;;;;;;20.31;56.44;98544.56;7310803;19;129007;-38
2021/12/27 09:02:36;;;;;;;14.95;2.83;;;;;;;20.23;56.40;98541.13;7311015;19;129790;-40
2021/12/27 09:05:03;;;;;;;21.73;3.22;;;;;;;20.31;57.14;98559.41;7307973;19;158766;-35
2021/12/27 09:07:28;;;;;;;12.40;2.50;;;;;;;20.29;56.60;98550.91;7308746;19;132124;-38
2021/12/27 09:09:53;;;;;;;23.42;4.30;;;;;;;20.34;56.80;98553.88;7308123;19;155003;-37
2021/12/27 09:12:19;;;;;;;26.42;4.60;;;;;;;20.32;57.17;98545.38;7306570;19;153969;-38
2021/12/27 09:14:44;;;;;;;16.05;3.22;;;;;;;20.31;56.99;98554.19;7310152;19;129832;-39
2021/12/27 09:17:09;;;;;;;14.40;2.55;;;;;;;20.35;56.71;98545.06;7308427;19;157215;-39
2021/12/27 09:19:35;;;;;;;10.30;2.35;;;;;;;20.31;57.19;98546.38;7309148;19;130323;-36
2021/12/27 09:22:00;;;;;;;19.60;3.30;;;;;;;20.30;56.76;98542.94;7309588;19;129625;-37
2021/12/27 09:24:26;;;;;;;17.55;2.85;;;;;;;20.30;57.13;98536.88;7306171;19;155555;-38
2021/12/27 09:26:51;;;;;;;17.20;3.00;;;;;;;20.33;57.11;98541.78;7309292;19;130979;-39
2021/12/27 09:29:16;;;;;;;13.80;2.33;;;;;;;20.31;57.18;98544.56;7310762;19;130314;-38
2021/12/27 09:31:41;;;;;;;15.32;2.95;;;;;;;20.28;57.02;98546.69;7306783;19;148271;-40
2021/12/27 09:34:07;;;;;;;15.68;2.83;;;;;;;20.30;56.56;98536.88;7306991;19;153523;-36
2021/12/27 09:36:32;;;;;;;16.88;3.15;;;;;;;20.34;57.07;98543.44;7307932;19;132563;-37
2021/12/27 09:38:57;;;;;;;23.20;3.78;;;;;;;20.35;56.77;98537.22;7304172;19;154558;-38
2021/12/27 09:41:24;;;;;;;10.13;2.05;;;;;;;20.22;56.72;98518.59;7307992;19;146431;-38
2021/12/27 09:43:50;;;;;;;25.05;4.35;;;;;;;20.27;57.14;98518.94;7307125;19;129447;-39
2021/12/27 09:46:17;;;;;;;12.97;2.57;;;;;;;20.31;56.91;98517.66;7309022;19;130920;-40
2021/12/27 09:48:42;;;;;;;17.48;3.08;;;;;;;20.22;57.10;98502.94;7306661;19;128948;-39
2021/12/27 09:51:08;;;;;;;22.70;3.90;;;;;;;20.31;56.85;98525.50;7307159;19;130880;-40
2021/12/27 09:53:34;;;;;;;17.17;3.42;;;;;;;20.34;56.52;98517.34;7307928;19;131014;-35
2021/12/27 09:55:59;;;;;;;12.52;2.17;;;;;;;20.30;56.63;98514.22;7312872;19;145335;-39
2021/12/27 09:58:25;;;;;;;13.13;2.40;;;;;;;20.26;57.00;98491.22;7314001;19;129256;-38
2021/12/27 10:00:50;;;;;;;14.40;2.47;;;;;;;20.28;57.18;98505.72;7314424;19;128868;-38
2021/12/27 10:03:16;;;;;;;13.48;2.67;;;;;;;20.34;56.89;98510.34;7313252;19;157389;-39
2021/12/27 10:05:41;;;;;;;15.77;3.00;;;;;;;20.33;56.89;98506.06;7311206;19;159174;-39
2021/12/27 10:08:06;;;;;;;23.25;4.05;;;;;;;20.25;56.43;98492.16;7308320;19;141707;-38
2021/12/27 10:10:34;;;;;;;20.15;3.47;;;;;;;20.32;57.14;98508.84;7314631;19;129010;-37
2021/12/27 10:13:01;;;;;;;17.42;2.88;;;;;;;20.34;57.07;98501.69;7312226;19;129773;-37
2021/12/27 10:15:38;;;;;;;13.70;2.35;;;;;;;20.31;57.31;98509.81;7314718;19;130363;-38
2021/12/27 10:18:23;;;;;;;18.02;2.88;;;;;;;20.31;57.44;98504.59;7312859;19;129026;-38
2021/12/27 10:20:48;;;;;;;11.30;2.38;;;;;;;20.27;56.64;98479.78;7312436;19;131005;-38
2021/12/27 10:23:18;;;;;;;20.55;4.38;;;;;;;20.16;53.67;98493.91;7311863;19;130808;-35
2021/12/27 10:25:43;;;;;;;14.52;3.88;;;;;;;20.11;53.83;98464.06;7313710;19;130472;-39
2021/12/27 10:28:09;;;;;;;22.20;4.45;;;;;;;20.22;54.15;98487.28;7312386;19;129366;-39
2021/12/27 10:30:37;;;;;;;19.60;4.27;;;;;;;20.18;54.61;98481.53;7313864;19;154133;-38
2021/12/27 10:33:09;;;;;;;19.05;3.83;;;;;;;20.23;55.60;98478.47;7312950;19;130381;-36
2021/12/27 10:35:45;;;;;;;18.25;3.50;;;;;;;20.16;55.63;98473.03;7313237;19;129415;-35
2021/12/27 10:38:32;;;;;;;23.92;4.15;;;;;;;20.08;55.67;98452.13;7312594;19;130345;-38
2021/12/27 10:41:00;;;;;;;29.55;4.68;;;;;;;20.18;55.96;98460.66;7315230;19;129425;-38
2021/12/27 10:43:41;;;;;;;20.48;4.40;;;;;;;20.11;56.43;98444.00;7311723;19;158549;-35
2021/12/27 10:46:12;;;;;;;18.30;3.40;;;;;;;20.17;56.53;98447.78;7313964;19;129812;-38
2021/12/27 10:48:41;;;;;;;39.10;7.45;;;;;;;20.01;56.34;98439.88;7307340;19;130401;-38
2021/12/27 10:51:07;;;;;;;16.08;3.17;;;;;;;20.16;56.46;98448.78;7305852;19;129967;-38
2021/12/27 10:53:51;;;;;;;35.65;7.28;;;;;;;20.13;56.37;98443.84;7296657;19;131774;-37
2021/12/27 10:56:18;;;;;;;14.88;3.70;;;;;;;20.14;56.43;98445.47;7306709;19;131337;-39
2021/12/27 10:58:53;;;;;;;15.32;3.25;;;;;;;20.17;56.55;98432.94;7310558;19;131848;-40
2021/12/27 11:01:22;;;;;;;14.95;2.95;;;;;;;20.23;56.31;98431.50;7311785;19;129333;-39
2021/12/27 11:03:50;;;;;;;55.00;10.10;;;;;;;20.21;55.87;98428.25;7307535;19;130448;-38
2021/12/27 11:06:21;;;;;;;24.17;4.72;;;;;;;20.24;56.42;98433.13;7309967;19;130377;-38
2021/12/27 11:08:47;;;;;;;13.93;3.50;;;;;;;20.28;55.88;98430.03;7308547;19;129579;-41
2021/12/27 11:11:14;;;;;;;19.88;3.88;;;;;;;20.30;56.74;98437.69;7310798;19;131163;-39
2021/12/27 11:13:39;;;;;;;18.63;4.00;;;;;;;20.27;55.84;98431.03;7309606;19;130135;-37
2021/12/27 11:16:05;;;;;;;15.25;3.38;;;;;;;20.28;55.83;98430.03;7307023;19;130253;-39
2021/12/27 11:18:31;;;;;;;21.13;4.30;;;;;;;20.24;56.29;98401.81;7307889;19;129729;-36
2021/12/27 11:21:21;;;;;;;71.82;13.77;;;;;;;20.33;56.28;98426.94;7304752;19;143661;-36